Portada
METAR-TAF:

METAR-TAF

Aeroports :

Lee's Summit Municipal Airport

Lee's Summit, Missouri, Estats Units d'Amèrica

latitud: 38-57-35N, longitud: 094-22-18W, altitud: 306 m

Observació

L'informe es va fer fa 1 hora i 6 minuts, a les 12:53 UTC
Vent 4 kt del Sud
Temperatura 3°C
Humitat 70%
Pressió 1010 hPa
Visibilitat: 16.1 km
Cel clar

METAR: KLXT 181253Z AUTO 18004KT 10SM CLR 03/M02 A2983 RMK AO2 SLP106 T00331022

Hora: 07:59 (13:59 UTC)


TAF: manca

Observacions i pronòstics meteorològics de més de 4000 aeroports (METAR i TAF).

Les estacions disponibles són els punts grocs i vermells al mapa.

Posi el ratolí al punt desitjat per veure el nom de l'estació.

Feu clic per veure les observacions i els pronòstics meteorològics.

Per canviar el mapa: feu clic els botons verds amb una creu de color negre per apropar; al botó verd amb un guió per allunyar la imatge; o en les fletxes verdes per a mapes adjacents.


METAR-TAF: